createdAt,value
2023-03-16T00:00:15.453Z,30.50
2023-03-16T00:01:17.973Z,28.02
2023-03-16T00:02:25.854Z,31.65
2023-03-16T00:03:30.568Z,27.13
2023-03-16T00:04:37.683Z,28.15
2023-03-16T00:05:39.909Z,28.45
2023-03-16T00:06:44.630Z,28.40
2023-03-16T00:07:46.831Z,28.05
2023-03-16T00:08:51.452Z,35.60
2023-03-16T00:09:54.795Z,26.70
2023-03-16T00:10:59.349Z,28.98
2023-03-16T00:12:03.333Z,36.75
2023-03-16T00:13:07.867Z,29.92
2023-03-16T00:14:10.034Z,32.05
2023-03-16T00:15:16.416Z,33.47
2023-03-16T00:16:18.687Z,26.73
2023-03-16T00:17:26.843Z,27.70
2023-03-16T00:18:29.459Z,29.33
2023-03-16T00:19:35.284Z,27.17
2023-03-16T00:20:37.249Z,22.83
2023-03-16T00:21:41.817Z,22.70
2023-03-16T00:22:44.761Z,27.63
2023-03-16T00:23:49.251Z,22.15
2023-03-16T00:24:52.862Z,22.73
2023-03-16T00:25:58.778Z,29.45
2023-03-16T00:27:01.134Z,24.00
2023-03-16T00:28:05.720Z,24.85
2023-03-16T00:29:07.674Z,32.88
2023-03-16T00:30:13.909Z,29.17
2023-03-16T00:31:18.590Z,21.73
2023-03-16T00:32:24.627Z,25.35
2023-03-16T00:33:30.006Z,20.80
2023-03-16T00:34:34.744Z,20.95
2023-03-16T00:35:39.288Z,26.90
2023-03-16T00:36:42.579Z,22.48
2023-03-16T00:37:47.189Z,25.38
2023-03-16T00:38:50.079Z,36.08
2023-03-16T00:39:56.464Z,25.77
2023-03-16T00:40:58.643Z,24.15
2023-03-16T00:42:03.221Z,27.00
2023-03-16T00:43:05.554Z,28.45
2023-03-16T00:44:10.095Z,27.10
2023-03-16T00:45:12.159Z,37.63
2023-03-16T00:46:18.843Z,27.77
2023-03-16T00:47:24.291Z,26.48
2023-03-16T00:48:28.807Z,29.27
2023-03-16T00:49:34.843Z,28.50
2023-03-16T00:50:39.737Z,31.48
2023-03-16T00:51:46.114Z,32.22
2023-03-16T00:52:53.696Z,34.33
2023-03-16T00:53:55.788Z,34.50
2023-03-16T00:55:00.408Z,33.58
2023-03-16T00:56:04.434Z,40.38
2023-03-16T00:57:09.141Z,40.15
2023-03-16T00:58:14.938Z,43.00
2023-03-16T00:59:20.207Z,42.08
2023-03-16T01:00:28.682Z,35.13
2023-03-16T01:01:32.908Z,35.10
2023-03-16T01:02:40.101Z,37.17
2023-03-16T01:03:42.121Z,41.05
2023-03-16T01:04:46.729Z,36.95
2023-03-16T01:05:49.119Z,40.05
2023-03-16T01:06:53.755Z,45.53
2023-03-16T01:07:55.713Z,38.33
2023-03-16T01:09:00.788Z,39.50
2023-03-16T01:10:03.388Z,43.88
2023-03-16T01:11:10.414Z,39.90
2023-03-16T01:12:15.300Z,41.85
2023-03-16T01:13:19.843Z,43.13
2023-03-16T01:14:22.908Z,40.35
2023-03-16T01:15:27.467Z,39.53
2023-03-16T01:16:30.133Z,39.53
2023-03-16T01:17:35.264Z,41.03
2023-03-16T01:18:41.533Z,41.85
2023-03-16T01:19:46.721Z,43.45
2023-03-16T01:20:51.047Z,43.10
2023-03-16T01:21:55.762Z,41.58
2023-03-16T01:22:57.829Z,39.90
2023-03-16T01:24:02.785Z,39.28
2023-03-16T01:25:05.847Z,44.70
2023-03-16T01:26:10.523Z,45.33
2023-03-16T01:27:14.307Z,43.08
2023-03-16T01:28:19.287Z,45.05
2023-03-16T01:29:22.086Z,41.28
2023-03-16T01:30:27.105Z,42.83
2023-03-16T01:31:29.516Z,42.13
2023-03-16T01:32:34.230Z,39.88
2023-03-16T01:33:39.708Z,39.75
2023-03-16T01:34:44.247Z,40.75
2023-03-16T01:35:52.703Z,43.70
2023-03-16T01:36:57.255Z,38.85
2023-03-16T01:37:59.316Z,41.30
2023-03-16T01:39:03.821Z,46.88
2023-03-16T01:40:07.837Z,44.17
2023-03-16T01:41:12.861Z,46.45
2023-03-16T01:42:15.005Z,44.03
2023-03-16T01:43:20.984Z,52.08
2023-03-16T01:44:28.327Z,43.90
2023-03-16T01:46:14.517Z,45.40
2023-03-16T01:47:16.681Z,50.75
2023-03-16T01:48:24.139Z,50.08
2023-03-16T01:49:35.120Z,51.13
2023-03-16T01:50:37.103Z,49.10
2023-03-16T01:51:45.999Z,41.35
2023-03-16T01:52:48.138Z,41.55
2023-03-16T01:53:56.531Z,43.35
2023-03-16T01:55:02.793Z,40.15
2023-03-16T01:56:11.268Z,40.25
2023-03-16T01:57:20.149Z,42.22
2023-03-16T01:58:22.825Z,39.53
2023-03-16T01:59:33.379Z,37.42
2023-03-16T02:00:35.362Z,40.38
2023-03-16T02:01:43.787Z,36.22
2023-03-16T02:02:49.920Z,34.83
2023-03-16T02:03:58.137Z,40.53
2023-03-16T02:05:07.906Z,37.50
2023-03-16T02:06:15.649Z,47.05
2023-03-16T02:07:21.994Z,42.95
2023-03-16T02:08:25.533Z,38.40
2023-03-16T02:09:30.979Z,39.45
2023-03-16T02:10:34.057Z,40.47
2023-03-16T02:11:39.329Z,40.75
2023-03-16T02:12:41.545Z,40.17
2023-03-16T02:13:46.123Z,38.63
2023-03-16T02:14:49.549Z,42.45
2023-03-16T02:15:54.901Z,38.28
2023-03-16T02:16:57.228Z,39.83
2023-03-16T02:18:03.011Z,28.67
2023-03-16T02:19:09.215Z,36.95
2023-03-16T02:20:29.071Z,39.63
2023-03-16T02:21:36.867Z,47.80
2023-03-16T02:22:46.295Z,32.88
2023-03-16T02:23:50.919Z,34.83
2023-03-16T02:24:55.770Z,40.33
2023-03-16T02:26:04.345Z,35.97
2023-03-16T02:27:12.226Z,35.53
2023-03-16T02:28:23.089Z,47.92
2023-03-16T02:29:47.314Z,43.05
2023-03-16T02:30:49.967Z,32.60
2023-03-16T02:31:56.480Z,33.80
2023-03-16T02:32:58.835Z,37.22
2023-03-16T02:34:04.812Z,33.85
2023-03-16T02:35:08.637Z,44.78
2023-03-16T02:36:13.473Z,36.58
2023-03-16T02:37:15.572Z,34.10
2023-03-16T02:38:20.271Z,33.47
2023-03-16T02:39:22.185Z,38.25
2023-03-16T02:40:29.221Z,41.08
2023-03-16T02:41:33.075Z,40.33
2023-03-16T02:42:37.857Z,33.03
2023-03-16T02:43:43.547Z,38.78
2023-03-16T02:44:56.542Z,42.92
2023-03-16T02:46:03.917Z,35.67
2023-03-16T02:47:12.907Z,36.38
2023-03-16T02:48:22.408Z,39.28
2023-03-16T02:49:30.514Z,34.63
2023-03-16T02:50:32.582Z,34.53
2023-03-16T02:51:37.391Z,37.10
2023-03-16T02:52:41.270Z,40.70
2023-03-16T02:53:45.894Z,33.88
2023-03-16T02:54:47.841Z,35.25
2023-03-16T02:55:52.448Z,34.30
2023-03-16T02:56:54.538Z,31.75
2023-03-16T02:57:59.200Z,37.42
2023-03-16T02:59:01.465Z,37.05
2023-03-16T03:00:14.476Z,32.40
2023-03-16T03:01:16.962Z,38.05
2023-03-16T03:02:21.622Z,36.42
2023-03-16T03:03:24.109Z,33.92
2023-03-16T03:04:28.810Z,39.10
2023-03-16T03:05:31.149Z,30.73
2023-03-16T03:06:36.518Z,29.45
2023-03-16T03:07:39.280Z,32.38
2023-03-16T03:08:44.194Z,29.38
2023-03-16T03:09:46.265Z,35.47
2023-03-16T03:10:51.484Z,29.02
2023-03-16T03:11:53.692Z,30.63
2023-03-16T03:12:58.538Z,31.58
2023-03-16T03:14:00.604Z,27.88
2023-03-16T03:15:08.358Z,30.42
2023-03-16T03:16:10.715Z,32.28
2023-03-16T03:17:15.364Z,33.13
2023-03-16T03:18:17.556Z,35.33
2023-03-16T03:19:23.225Z,34.28
2023-03-16T03:20:25.361Z,33.95
2023-03-16T03:21:30.400Z,35.30
2023-03-16T03:22:32.505Z,31.25
2023-03-16T03:23:37.753Z,30.55
2023-03-16T03:24:42.713Z,35.35
2023-03-16T03:25:45.565Z,32.30
2023-03-16T03:26:50.253Z,33.75
2023-03-16T03:27:54.680Z,31.60
2023-03-16T03:28:59.406Z,35.03
2023-03-16T03:30:01.724Z,32.00
2023-03-16T03:31:09.120Z,31.55
2023-03-16T03:32:11.558Z,39.45
2023-03-16T03:33:16.201Z,42.65
2023-03-16T03:34:18.293Z,33.45
2023-03-16T03:35:23.793Z,35.28
2023-03-16T03:36:25.789Z,40.03
2023-03-16T03:37:30.498Z,33.67
2023-03-16T03:38:32.624Z,32.83
2023-03-16T03:39:37.358Z,32.13
2023-03-16T03:40:39.664Z,32.90
2023-03-16T03:41:44.368Z,36.35
2023-03-16T03:42:46.943Z,32.50
2023-03-16T03:43:51.549Z,30.83
2023-03-16T03:44:53.925Z,38.53
2023-03-16T03:46:01.056Z,32.13
2023-03-16T03:47:06.160Z,34.92
2023-03-16T03:48:10.959Z,44.15
2023-03-16T03:49:13.041Z,33.08
2023-03-16T03:50:17.757Z,37.47
2023-03-16T03:51:19.924Z,35.35
2023-03-16T03:52:24.732Z,38.63
2023-03-16T03:53:26.744Z,39.55
2023-03-16T03:54:31.457Z,33.92
2023-03-16T03:55:33.511Z,36.88
2023-03-16T03:56:38.357Z,33.85
2023-03-16T03:57:41.213Z,30.90
2023-03-16T03:58:45.769Z,33.55
2023-03-16T03:59:47.837Z,32.05
2023-03-16T04:00:52.528Z,32.70
2023-03-16T04:01:54.896Z,33.72
2023-03-16T04:03:02.317Z,33.13
2023-03-16T04:04:04.484Z,33.92
2023-03-16T04:05:09.913Z,32.28
2023-03-16T04:06:12.066Z,35.67
2023-03-16T04:07:16.829Z,37.10
2023-03-16T04:08:19.080Z,37.03
2023-03-16T04:09:23.892Z,35.35
2023-03-16T04:10:27.347Z,38.45
2023-03-16T04:11:32.262Z,33.35
2023-03-16T04:12:34.367Z,31.77
2023-03-16T04:13:39.041Z,41.50
2023-03-16T04:14:41.102Z,34.72
2023-03-16T04:15:47.010Z,42.70
2023-03-16T04:16:49.045Z,39.25
2023-03-16T04:17:54.057Z,32.78
2023-03-16T04:18:58.963Z,35.30
2023-03-16T04:20:06.066Z,38.45
2023-03-16T04:21:12.765Z,34.90
2023-03-16T04:22:17.384Z,32.53
2023-03-16T04:23:19.866Z,45.63
2023-03-16T04:24:24.490Z,39.63
2023-03-16T04:25:27.754Z,35.00
2023-03-16T04:26:32.855Z,39.60
2023-03-16T04:27:36.617Z,33.80
2023-03-16T04:28:41.588Z,33.15
2023-03-16T04:29:43.821Z,47.25
2023-03-16T04:30:48.521Z,32.33
2023-03-16T04:31:51.217Z,32.63
2023-03-16T04:32:56.482Z,44.92
2023-03-16T04:34:02.519Z,33.28
2023-03-16T04:35:07.853Z,34.05
2023-03-16T04:36:10.401Z,33.78
2023-03-16T04:37:14.979Z,31.42
2023-03-16T04:38:17.041Z,36.97
2023-03-16T04:39:22.114Z,37.30
2023-03-16T04:40:24.621Z,40.47
2023-03-16T04:41:29.447Z,39.38
2023-03-16T04:42:31.615Z,33.72
2023-03-16T04:43:37.058Z,33.15
2023-03-16T04:44:44.559Z,34.13
2023-03-16T04:45:46.868Z,36.30
2023-03-16T04:46:51.512Z,36.50
2023-03-16T04:47:53.539Z,36.13
2023-03-16T04:48:58.816Z,38.28
2023-03-16T04:50:04.794Z,40.88
2023-03-16T04:51:09.989Z,43.65
2023-03-16T04:52:14.948Z,44.00
2023-03-16T04:53:17.358Z,51.33
2023-03-16T04:54:22.076Z,60.25
2023-03-16T04:55:24.353Z,59.22
2023-03-16T04:56:28.968Z,57.75
2023-03-16T04:57:31.336Z,59.47
2023-03-16T04:58:36.143Z,54.10
2023-03-16T04:59:38.243Z,55.47
2023-03-16T05:00:43.188Z,51.78
2023-03-16T05:01:45.319Z,51.75
2023-03-16T05:02:50.504Z,58.25
2023-03-16T05:03:53.090Z,53.97
2023-03-16T05:04:58.026Z,53.80
2023-03-16T05:06:02.782Z,62.90
2023-03-16T05:07:07.489Z,44.35
2023-03-16T05:08:10.966Z,53.22
2023-03-16T05:09:15.615Z,45.17
2023-03-16T05:10:19.190Z,43.92
2023-03-16T05:11:23.915Z,49.15
2023-03-16T05:12:25.896Z,49.97
2023-03-16T05:13:30.842Z,49.10
2023-03-16T05:14:32.966Z,49.50
2023-03-16T05:15:37.778Z,51.47
2023-03-16T05:16:39.814Z,48.72
2023-03-16T05:17:44.759Z,50.78
2023-03-16T05:18:47.240Z,48.38
2023-03-16T05:19:51.985Z,45.72
2023-03-16T05:20:56.191Z,41.88
2023-03-16T05:22:03.483Z,44.03
2023-03-16T05:23:07.630Z,40.80
2023-03-16T05:24:12.329Z,42.38
2023-03-16T05:25:15.967Z,39.10
2023-03-16T05:26:21.016Z,40.83
2023-03-16T05:27:23.142Z,49.00
2023-03-16T05:28:27.931Z,43.15
2023-03-16T05:29:31.387Z,40.92
2023-03-16T05:30:37.082Z,40.95
2023-03-16T05:31:39.291Z,36.45
2023-03-16T05:32:43.896Z,37.20
2023-03-16T05:33:46.091Z,39.83
2023-03-16T05:34:53.281Z,36.95
2023-03-16T05:35:57.577Z,37.65
2023-03-16T05:37:05.027Z,37.50
2023-03-16T05:38:07.548Z,39.17
2023-03-16T05:39:12.297Z,39.10
2023-03-16T05:40:17.316Z,40.20
2023-03-16T05:41:23.078Z,40.78
2023-03-16T05:42:27.047Z,41.75
2023-03-16T05:43:32.020Z,38.53
2023-03-16T05:44:34.565Z,41.30
2023-03-16T05:45:39.198Z,34.92
2023-03-16T05:46:41.241Z,49.22
2023-03-16T05:47:47.356Z,39.22
2023-03-16T05:48:49.369Z,37.00
2023-03-16T05:49:54.056Z,37.13
2023-03-16T05:50:56.268Z,40.55
2023-03-16T05:52:00.850Z,38.63
2023-03-16T05:53:05.566Z,35.75
2023-03-16T05:54:10.465Z,40.78
2023-03-16T05:55:14.815Z,38.47
2023-03-16T05:56:19.583Z,42.53
2023-03-16T05:57:21.728Z,42.97
2023-03-16T05:58:27.068Z,45.13
2023-03-16T05:59:29.348Z,55.10
2023-03-16T06:00:34.697Z,50.80
2023-03-16T06:01:37.486Z,48.35
2023-03-16T06:02:42.197Z,53.75
2023-03-16T06:03:44.250Z,50.10
2023-03-16T06:04:49.047Z,53.20
2023-03-16T06:05:51.072Z,75.40
2023-03-16T06:06:55.753Z,50.17
2023-03-16T06:07:57.966Z,51.92
2023-03-16T06:09:05.388Z,51.10
2023-03-16T06:10:08.928Z,46.30
2023-03-16T06:11:14.323Z,44.97
2023-03-16T06:12:18.984Z,54.15
2023-03-16T06:13:21.547Z,54.63
2023-03-16T06:14:26.236Z,64.72
2023-03-16T06:15:30.745Z,56.33
2023-03-16T06:16:35.576Z,55.22
2023-03-16T06:17:41.624Z,55.88
2023-03-16T06:18:44.182Z,53.50
2023-03-16T06:19:48.899Z,48.50
2023-03-16T06:20:51.056Z,57.42
2023-03-16T06:21:55.771Z,55.50
2023-03-16T06:22:58.401Z,52.20
2023-03-16T06:24:07.834Z,65.05
2023-03-16T06:25:12.339Z,47.83
2023-03-16T06:26:17.099Z,49.42
2023-03-16T06:27:20.470Z,50.78
2023-03-16T06:28:26.422Z,53.67
2023-03-16T06:29:28.579Z,51.67
2023-03-16T06:30:33.441Z,49.90
2023-03-16T06:31:36.283Z,51.03
2023-03-16T06:32:42.243Z,78.07
2023-03-16T06:33:46.909Z,62.53
2023-03-16T06:34:49.259Z,53.55
2023-03-16T06:35:54.120Z,56.55
2023-03-16T06:36:56.198Z,52.28
2023-03-16T06:38:01.225Z,45.17
2023-03-16T06:39:05.955Z,56.20
2023-03-16T06:40:12.621Z,58.75
2023-03-16T06:41:14.653Z,61.05
2023-03-16T06:42:19.314Z,72.53
2023-03-16T06:43:21.309Z,66.88
2023-03-16T06:44:25.973Z,84.90
2023-03-16T06:45:28.008Z,71.78
2023-03-16T06:46:33.150Z,71.68
2023-03-16T06:47:35.176Z,58.75
2023-03-16T06:48:39.720Z,53.47
2023-03-16T06:49:41.779Z,43.42
2023-03-16T06:50:48.459Z,48.85
2023-03-16T06:51:50.830Z,44.13
2023-03-16T06:52:55.497Z,49.33
2023-03-16T06:53:58.076Z,44.97
2023-03-16T06:55:05.491Z,53.10
2023-03-16T06:56:08.166Z,51.60
2023-03-16T06:57:12.930Z,42.53
2023-03-16T06:58:14.998Z,51.90
2023-03-16T06:59:19.628Z,46.75
2023-03-16T07:00:22.409Z,49.05
2023-03-16T07:01:27.036Z,56.83
2023-03-16T07:02:29.246Z,52.88
2023-03-16T07:03:34.317Z,48.25
2023-03-16T07:04:39.181Z,61.72
2023-03-16T07:05:41.296Z,54.10
2023-03-16T07:06:45.974Z,47.80
2023-03-16T07:07:48.224Z,51.03
2023-03-16T07:08:53.153Z,45.17
2023-03-16T07:09:55.189Z,50.15
2023-03-16T07:11:02.430Z,46.38
2023-03-16T07:12:04.718Z,41.65
2023-03-16T07:13:09.397Z,53.03
2023-03-16T07:14:11.984Z,48.83
2023-03-16T07:15:17.268Z,41.35
2023-03-16T07:16:19.427Z,41.15
2023-03-16T07:17:24.654Z,45.67
2023-03-16T07:18:26.972Z,43.00
2023-03-16T07:19:31.884Z,39.15
2023-03-16T07:20:36.813Z,44.35
2023-03-16T07:21:40.982Z,42.45
2023-03-16T07:22:45.695Z,39.40
2023-03-16T07:23:48.040Z,44.10
2023-03-16T07:24:57.454Z,34.90
2023-03-16T07:26:02.235Z,31.95
2023-03-16T07:27:06.969Z,38.92
2023-03-16T07:28:08.962Z,32.60
2023-03-16T07:29:14.026Z,32.42
2023-03-16T07:30:16.349Z,34.83
2023-03-16T07:31:21.186Z,32.00
2023-03-16T07:32:26.165Z,31.35
2023-03-16T07:33:28.173Z,36.03
2023-03-16T07:34:32.737Z,33.53
2023-03-16T07:35:37.362Z,33.08
2023-03-16T07:36:41.992Z,32.70
2023-03-16T07:37:44.058Z,29.02
2023-03-16T07:38:48.667Z,26.33
2023-03-16T07:39:53.263Z,28.73
2023-03-16T07:40:57.810Z,24.85
2023-03-16T07:42:04.956Z,30.73
2023-03-16T07:43:09.576Z,26.45
2023-03-16T07:44:12.126Z,24.95
2023-03-16T07:45:18.100Z,33.70
2023-03-16T07:46:20.274Z,25.80
2023-03-16T07:47:26.565Z,26.95
2023-03-16T07:48:28.808Z,29.25
2023-03-16T07:49:33.427Z,31.48
2023-03-16T07:50:38.365Z,30.02
2023-03-16T07:51:43.391Z,37.47
2023-03-16T07:52:49.003Z,23.90
2023-03-16T07:53:54.019Z,24.05
2023-03-16T07:54:58.887Z,29.38
2023-03-16T07:56:01.456Z,23.88
2023-03-16T07:57:09.082Z,24.17
2023-03-16T07:58:13.835Z,31.98
2023-03-16T07:59:20.772Z,27.50
2023-03-16T08:00:26.725Z,29.00
2023-03-16T08:01:28.980Z,29.70
2023-03-16T08:02:34.110Z,29.13
2023-03-16T08:03:39.102Z,29.52
2023-03-16T08:04:44.894Z,31.65
2023-03-16T08:05:49.969Z,22.80
2023-03-16T08:06:52.535Z,34.60
2023-03-16T08:07:57.874Z,28.48
2023-03-16T08:09:02.520Z,30.23
2023-03-16T08:10:06.745Z,26.15
2023-03-16T08:11:11.610Z,21.60
2023-03-16T08:12:18.916Z,25.50
2023-03-16T08:13:23.796Z,19.35
2023-03-16T08:14:29.129Z,20.85
2023-03-16T08:15:35.233Z,31.08
2023-03-16T08:16:37.574Z,23.75
2023-03-16T08:17:43.229Z,20.92
2023-03-16T08:18:47.812Z,22.17
2023-03-16T08:19:50.207Z,15.27
2023-03-16T08:20:55.329Z,19.42
2023-03-16T08:22:01.611Z,152.60
2023-03-16T08:23:07.166Z,14.60
2023-03-16T08:24:09.284Z,14.40
2023-03-16T08:25:13.999Z,18.98
2023-03-16T08:26:20.089Z,13.75
2023-03-16T08:27:26.085Z,12.80
2023-03-16T08:28:32.079Z,20.55
2023-03-16T08:29:37.908Z,17.50
2023-03-16T08:30:45.185Z,21.13
2023-03-16T08:31:49.788Z,18.27
2023-03-16T08:32:54.865Z,16.88
2023-03-16T08:33:57.386Z,14.55
2023-03-16T08:35:02.741Z,15.73
2023-03-16T08:36:09.478Z,14.05
2023-03-16T08:37:12.518Z,13.88
2023-03-16T08:38:19.352Z,15.25
2023-03-16T08:39:24.098Z,15.23
2023-03-16T08:40:29.875Z,26.35
2023-03-16T08:41:35.059Z,18.95
2023-03-16T08:42:43.196Z,14.73
2023-03-16T08:43:45.244Z,18.02
2023-03-16T08:44:50.993Z,12.07
2023-03-16T08:45:54.080Z,12.77
2023-03-16T08:46:59.483Z,19.70
2023-03-16T08:48:05.159Z,12.80
2023-03-16T08:49:07.342Z,11.30
2023-03-16T08:50:15.714Z,19.58
2023-03-16T08:51:17.820Z,16.60
2023-03-16T08:52:23.128Z,17.70
2023-03-16T08:53:25.272Z,17.45
2023-03-16T08:54:30.363Z,10.82
2023-03-16T08:55:32.351Z,12.80
2023-03-16T08:56:37.061Z,19.92
2023-03-16T08:57:45.333Z,14.23
2023-03-16T08:58:49.981Z,10.95
2023-03-16T08:59:55.201Z,14.07
2023-03-16T09:00:59.781Z,8.95
2023-03-16T09:02:02.002Z,8.20
2023-03-16T09:03:07.561Z,13.10
2023-03-16T09:04:09.680Z,7.82
2023-03-16T09:05:16.423Z,13.13
2023-03-16T09:06:22.363Z,21.55
2023-03-16T09:07:24.455Z,10.77
2023-03-16T09:08:29.425Z,11.98
2023-03-16T09:09:34.974Z,24.15
2023-03-16T09:10:38.116Z,20.20
2023-03-16T09:11:43.028Z,16.70
2023-03-16T09:12:47.711Z,24.20
2023-03-16T09:13:53.219Z,10.93
2023-03-16T09:14:56.291Z,11.05
2023-03-16T09:16:01.064Z,16.52
2023-03-16T09:17:03.135Z,12.27
2023-03-16T09:18:08.085Z,8.95
2023-03-16T09:19:11.839Z,18.77
2023-03-16T09:20:22.723Z,10.48
2023-03-16T09:21:31.276Z,12.07
2023-03-16T09:22:33.479Z,16.90
2023-03-16T09:23:41.922Z,13.10
2023-03-16T09:24:44.094Z,13.13
2023-03-16T09:25:48.895Z,17.02
2023-03-16T09:26:51.007Z,9.10
2023-03-16T09:27:58.355Z,18.02
2023-03-16T09:29:00.837Z,7.47
2023-03-16T09:30:05.838Z,9.35
2023-03-16T09:31:11.781Z,6.82
2023-03-16T09:32:14.450Z,8.68
2023-03-16T09:33:19.812Z,7.97
2023-03-16T09:35:47.843Z,11.65
2023-03-16T09:36:50.472Z,6.45
2023-03-16T09:38:05.508Z,10.40
2023-03-16T09:39:11.750Z,10.40
2023-03-16T09:40:25.650Z,7.43
2023-03-16T09:41:41.950Z,10.02
2023-03-16T09:42:56.836Z,16.20
2023-03-16T09:44:13.568Z,10.13
2023-03-16T09:45:24.104Z,8.35
2023-03-16T09:46:31.756Z,18.10
2023-03-16T09:47:38.784Z,14.50
2023-03-16T09:48:43.921Z,13.48
2023-03-16T09:49:50.920Z,14.68
2023-03-16T09:50:55.135Z,9.40
2023-03-16T09:52:07.796Z,9.07
2023-03-16T09:53:19.702Z,7.80
2023-03-16T09:54:32.312Z,10.95
2023-03-16T09:55:36.643Z,11.50
2023-03-16T09:56:45.334Z,13.05
2023-03-16T09:57:50.150Z,16.60
2023-03-16T09:58:54.886Z,8.23
2023-03-16T10:00:11.124Z,5.95
2023-03-16T10:01:25.628Z,7.75
2023-03-16T10:02:45.087Z,14.88
2023-03-16T10:04:05.109Z,12.70
2023-03-16T10:05:11.909Z,9.35
2023-03-16T10:06:18.169Z,12.63
2023-03-16T10:07:30.566Z,16.95
2023-03-16T10:08:42.182Z,28.83
2023-03-16T10:11:13.647Z,12.13
2023-03-16T10:12:19.206Z,9.90
2023-03-16T10:13:33.577Z,7.57
2023-03-16T10:14:45.625Z,9.57
2023-03-16T10:15:56.787Z,12.90
2023-03-16T10:17:03.245Z,13.00
2023-03-16T10:18:17.375Z,9.18
2023-03-16T10:19:28.551Z,11.95
2023-03-16T10:20:36.777Z,12.68
2023-03-16T10:21:40.714Z,14.20
2023-03-16T10:22:48.065Z,22.27
2023-03-16T10:23:55.221Z,14.20
2023-03-16T10:25:09.955Z,27.23
2023-03-16T10:26:19.068Z,16.83
2023-03-16T10:27:28.800Z,6.68
2023-03-16T10:28:38.643Z,11.93
2023-03-16T10:29:41.535Z,13.77
2023-03-16T10:30:46.452Z,19.17
2023-03-16T10:31:53.824Z,23.92
2023-03-16T10:32:59.867Z,19.92
2023-03-16T10:34:06.031Z,11.80
2023-03-16T10:35:23.487Z,15.52
2023-03-16T10:36:33.719Z,8.90
2023-03-16T10:37:37.641Z,11.13
2023-03-16T10:38:46.785Z,8.75
2023-03-16T10:39:52.142Z,14.45
2023-03-16T10:40:54.438Z,10.75
2023-03-16T10:42:02.802Z,8.98
2023-03-16T10:43:13.113Z,9.20
2023-03-16T10:44:19.670Z,13.43
2023-03-16T10:45:30.655Z,14.40
2023-03-16T10:46:39.631Z,13.75
2023-03-16T10:47:47.000Z,15.57
2023-03-16T10:49:00.359Z,21.08
2023-03-16T10:50:14.443Z,11.35
2023-03-16T10:51:20.278Z,9.05
2023-03-16T10:52:32.394Z,9.45
2023-03-16T10:53:36.987Z,10.57
2023-03-16T10:54:44.361Z,12.10
2023-03-16T10:55:51.584Z,13.55
2023-03-16T10:56:53.626Z,9.20
2023-03-16T10:57:59.073Z,10.05
2023-03-16T10:59:01.245Z,5.80
2023-03-16T11:00:20.701Z,9.98
2023-03-16T11:01:29.573Z,13.05
2023-03-16T11:02:36.756Z,9.68
2023-03-16T11:03:45.245Z,15.93
2023-03-16T11:04:50.876Z,10.23
2023-03-16T11:06:01.062Z,6.88
2023-03-16T11:07:05.776Z,6.38
2023-03-16T11:08:12.301Z,5.53
2023-03-16T11:09:24.884Z,10.38
2023-03-16T11:10:30.698Z,7.43
2023-03-16T11:11:36.213Z,10.43
2023-03-16T11:12:38.542Z,19.50
2023-03-16T11:13:49.569Z,20.08
2023-03-16T11:14:54.874Z,17.95
2023-03-16T11:16:01.805Z,29.60
2023-03-16T11:17:10.660Z,22.50
2023-03-16T11:18:22.744Z,17.98
2023-03-16T11:19:33.213Z,22.38
2023-03-16T11:20:36.166Z,15.23
2023-03-16T11:21:51.538Z,16.60
2023-03-16T11:22:56.403Z,9.07
2023-03-16T11:24:00.496Z,7.28
2023-03-16T11:25:15.717Z,6.38
2023-03-16T11:26:26.030Z,7.50
2023-03-16T11:27:40.513Z,17.38
2023-03-16T11:28:51.792Z,11.85
2023-03-16T11:30:09.848Z,6.85
2023-03-16T11:31:24.485Z,5.65
2023-03-16T11:32:34.573Z,23.15
2023-03-16T11:33:39.200Z,9.50
2023-03-16T11:34:44.956Z,14.38
2023-03-16T11:35:59.306Z,19.30
2023-03-16T11:37:13.636Z,8.60
2023-03-16T11:38:21.797Z,7.35
2023-03-16T11:39:31.934Z,13.40
2023-03-16T11:40:49.113Z,14.98
2023-03-16T11:42:01.362Z,12.10
2023-03-16T11:43:16.756Z,6.15
2023-03-16T11:44:29.249Z,10.70
2023-03-16T11:45:37.714Z,10.90
2023-03-16T11:46:50.992Z,38.72
2023-03-16T11:48:22.734Z,12.40
2023-03-16T11:50:00.223Z,10.40
2023-03-16T11:51:12.002Z,12.77
2023-03-16T11:52:26.626Z,8.13
2023-03-16T11:53:44.141Z,5.78
2023-03-16T11:55:02.655Z,9.48
2023-03-16T11:56:16.180Z,11.80
2023-03-16T11:57:33.834Z,4.38
2023-03-16T11:58:59.355Z,4.28
2023-03-16T12:00:16.227Z,6.53
2023-03-16T12:01:26.252Z,7.28
2023-03-16T12:02:44.231Z,5.90
2023-03-16T12:04:05.040Z,7.55
2023-03-16T12:05:23.613Z,5.20
2023-03-16T12:06:42.223Z,7.63
2023-03-16T12:07:55.741Z,13.43
2023-03-16T12:09:23.152Z,5.38
2023-03-16T12:10:33.028Z,5.63
2023-03-16T12:11:41.934Z,5.05
2023-03-16T12:12:56.322Z,9.70
2023-03-16T12:14:10.675Z,6.35
2023-03-16T12:15:38.543Z,5.68
2023-03-16T12:16:49.608Z,8.90
2023-03-16T12:17:59.128Z,9.98
2023-03-16T12:19:08.859Z,9.77
2023-03-16T12:20:21.371Z,6.90
2023-03-16T12:21:31.689Z,10.23
2023-03-16T12:22:37.484Z,5.45
2023-03-16T12:23:46.603Z,6.55
2023-03-16T12:24:51.362Z,7.07
2023-03-16T12:25:54.084Z,11.77
2023-03-16T12:27:00.504Z,13.80
2023-03-16T12:28:09.575Z,9.35
2023-03-16T12:29:24.702Z,6.05
2023-03-16T12:30:39.157Z,8.98
2023-03-16T12:31:50.326Z,10.02
2023-03-16T12:33:01.532Z,11.07
2023-03-16T12:34:16.420Z,7.55
2023-03-16T12:35:36.699Z,10.88
2023-03-16T12:36:59.181Z,8.20
2023-03-16T12:38:20.958Z,12.50
2023-03-16T12:39:43.168Z,8.32
2023-03-16T12:40:55.554Z,9.85
2023-03-16T12:42:10.119Z,12.80
2023-03-16T12:43:34.451Z,6.07
2023-03-16T12:44:46.911Z,9.02
2023-03-16T12:46:01.269Z,9.25
2023-03-16T12:47:16.062Z,5.28
2023-03-16T12:48:27.302Z,8.60
2023-03-16T12:49:38.469Z,12.88
2023-03-16T12:50:55.812Z,6.70
2023-03-16T12:52:06.000Z,9.07
2023-03-16T12:53:10.556Z,7.57
2023-03-16T12:54:20.829Z,6.03
2023-03-16T12:55:30.008Z,4.95
2023-03-16T12:56:37.625Z,4.53
2023-03-16T12:57:41.478Z,6.95
2023-03-16T12:58:48.644Z,7.13
2023-03-16T12:59:59.154Z,17.80
2023-03-16T13:01:01.242Z,6.68
2023-03-16T13:02:06.860Z,8.55
2023-03-16T13:03:15.736Z,16.42
2023-03-16T13:04:23.598Z,6.35
2023-03-16T13:05:31.968Z,8.15
2023-03-16T13:06:40.496Z,13.00
2023-03-16T13:07:50.482Z,6.20
2023-03-16T13:09:01.182Z,9.85
2023-03-16T13:10:08.943Z,13.05
2023-03-16T13:11:16.590Z,5.15
2023-03-16T13:12:31.036Z,6.15
2023-03-16T13:13:34.303Z,9.18
2023-03-16T13:14:42.771Z,9.85
2023-03-16T13:15:49.752Z,9.93
2023-03-16T13:16:55.702Z,10.25
2023-03-16T13:18:22.338Z,21.35
2023-03-16T13:19:27.361Z,17.17
2023-03-16T13:20:34.840Z,5.45
2023-03-16T13:21:44.235Z,8.23
2023-03-16T13:22:51.453Z,9.15
2023-03-16T13:23:58.869Z,11.57
2023-03-16T13:25:15.768Z,16.38
2023-03-16T13:26:23.657Z,15.35
2023-03-16T13:27:31.156Z,10.65
2023-03-16T13:28:36.425Z,24.85
2023-03-16T13:29:41.658Z,28.63
2023-03-16T13:30:47.304Z,9.13
2023-03-16T13:31:52.892Z,18.85
2023-03-16T13:32:59.209Z,12.63
2023-03-16T13:34:02.906Z,7.75
2023-03-16T13:35:11.514Z,8.55
2023-03-16T13:36:14.480Z,5.72
2023-03-16T13:37:24.208Z,6.57
2023-03-16T13:38:28.709Z,8.73
2023-03-16T13:39:34.916Z,6.05
2023-03-16T13:40:46.407Z,7.53
2023-03-16T13:42:02.462Z,12.40
2023-03-16T13:43:04.486Z,8.15
2023-03-16T13:44:17.165Z,10.50
2023-03-16T13:45:30.282Z,14.07
2023-03-16T13:46:32.239Z,7.60
2023-03-16T13:47:36.975Z,7.47
2023-03-16T13:48:40.363Z,6.47
2023-03-16T13:49:48.787Z,8.68
2023-03-16T13:50:55.594Z,14.68
2023-03-16T13:52:00.272Z,10.50
2023-03-16T13:53:14.659Z,9.82
2023-03-16T13:54:23.898Z,9.10
2023-03-16T13:55:34.929Z,7.82
2023-03-16T13:56:37.371Z,8.10
2023-03-16T13:57:44.284Z,10.02
2023-03-16T13:58:49.397Z,9.32
2023-03-16T13:59:59.088Z,10.35
2023-03-16T14:01:03.551Z,14.88
2023-03-16T14:02:20.790Z,8.50
2023-03-16T14:03:24.065Z,7.13
2023-03-16T14:04:30.965Z,13.70
2023-03-16T14:05:35.448Z,8.07
2023-03-16T14:06:41.337Z,8.00
2023-03-16T14:07:49.386Z,10.50
2023-03-16T14:09:01.494Z,12.70
2023-03-16T14:10:05.366Z,8.82
2023-03-16T14:11:12.641Z,10.95
2023-03-16T14:12:18.784Z,7.95
2023-03-16T14:13:33.007Z,6.38
2023-03-16T14:14:42.088Z,12.27
2023-03-16T14:15:45.568Z,11.15
2023-03-16T14:16:50.238Z,11.23
2023-03-16T14:17:52.580Z,15.10
2023-03-16T14:19:01.486Z,11.75
2023-03-16T14:20:06.822Z,14.80
2023-03-16T14:21:15.098Z,11.63